63.0°F
Current conditions from King Hill
Updated every 5 minutes
 
  Thursday August 21, 2014

Station Historical Data
Daily Summary for February 28, 2011 Units:  English    Metric   Both
« Previous Day
Next Day »
Daily Weekly Monthly Yearly Custom
  High: Low: Average:
Temperature: 34.1 °F 26.0 °F 31.2 °F
Dew Point: 32.3 °F 19.0 °F 26 °F
Humidity: 93% 69% 81%
Wind Speed: 14.0mph 1.0mph 6mph
Wind Gust: 26.0mph - -
Wind- - WSW
Pressure: 29.99 in 29.39 in -
Precipitation: 0.00 in    
Historical Graphs
 
 
Tabular Data for February 28, 2011
Time Temperature Dew Point Pressure Wind Wind Speed Wind Gust Humidity Daily Rainfall
00:04 29.4 °F 22.1 °F 29.99 in SSW 4.0 mph 12.0 mph 74% 0.00 in
00:09 29.5 °F 22.2 °F 29.99 in South 4.0 mph 12.0 mph 74% 0.00 in
00:14 29.5 °F 21.9 °F 29.98 in South 5.0 mph 11.0 mph 73% 0.00 in
00:19 29.5 °F 21.9 °F 29.97 in South 4.0 mph 11.0 mph 73% 0.00 in
00:24 29.7 °F 22.1 °F 29.98 in South 6.0 mph 12.0 mph 73% 0.00 in
00:29 29.9 °F 22.0 °F 29.98 in SSW 5.0 mph 12.0 mph 72% 0.00 in
00:34 30.0 °F 22.1 °F 29.97 in South 6.0 mph 11.0 mph 72% 0.00 in
00:39 30.0 °F 22.1 °F 29.97 in SSW 4.0 mph 11.0 mph 72% 0.00 in
00:44 30.2 °F 21.9 °F 29.97 in South 7.0 mph 13.0 mph 71% 0.00 in
00:49 30.3 °F 22.0 °F 29.97 in South 6.0 mph 13.0 mph 71% 0.00 in
00:59 30.1 °F 21.8 °F 29.96 in South 4.0 mph 11.0 mph 71% 0.00 in
01:09 30.4 °F 22.1 °F 29.95 in South 5.0 mph 12.0 mph 71% 0.00 in
01:14 30.7 °F 22.4 °F 29.95 in SSW 6.0 mph 11.0 mph 71% 0.00 in
01:19 30.8 °F 22.5 °F 29.95 in SSW 4.0 mph 11.0 mph 71% 0.00 in
01:24 31.1 °F 22.5 °F 29.94 in SSW 5.0 mph 11.0 mph 70% 0.00 in
01:29 31.5 °F 22.8 °F 29.95 in South 5.0 mph 11.0 mph 70% 0.00 in
01:34 31.6 °F 22.9 °F 29.95 in South 6.0 mph 11.0 mph 70% 0.00 in
01:39 31.5 °F 22.8 °F 29.95 in SSW 6.0 mph 11.0 mph 70% 0.00 in
01:44 31.5 °F 22.8 °F 29.95 in SSW 7.0 mph 12.0 mph 70% 0.00 in
01:49 31.5 °F 22.8 °F 29.95 in SSW 5.0 mph 12.0 mph 70% 0.00 in
01:55 31.6 °F 22.9 °F 29.95 in SSW 6.0 mph 14.0 mph 70% 0.00 in
01:59 31.6 °F 22.9 °F 29.94 in South 6.0 mph 14.0 mph 70% 0.00 in
02:04 31.7 °F 23.0 °F 29.94 in SSW 4.0 mph 9.0 mph 70% 0.00 in
02:09 31.6 °F 22.9 °F 29.93 in South 5.0 mph 10.0 mph 70% 0.00 in
02:14 31.7 °F 23.0 °F 29.93 in SSW 6.0 mph 11.0 mph 70% 0.00 in
02:19 31.7 °F 23.0 °F 29.93 in South 4.0 mph 11.0 mph 70% 0.00 in
02:24 31.7 °F 23.4 °F 29.92 in South 2.0 mph 10.0 mph 71% 0.00 in
02:29 31.8 °F 23.1 °F 29.91 in South 6.0 mph 11.0 mph 70% 0.00 in
02:34 32.0 °F 23.3 °F 29.90 in SSW 5.0 mph 12.0 mph 70% 0.00 in
02:39 32.1 °F 23.4 °F 29.90 in South 4.0 mph 12.0 mph 70% 0.00 in
02:44 32.3 °F 23.3 °F 29.89 in South 5.0 mph 10.0 mph 69% 0.00 in
02:49 32.4 °F 23.4 °F 29.88 in South 5.0 mph 10.0 mph 69% 0.00 in
02:54 32.5 °F 23.5 °F 29.88 in South 4.0 mph 12.0 mph 69% 0.00 in
03:04 32.3 °F 23.3 °F 29.88 in SSW 5.0 mph 9.0 mph 69% 0.00 in
03:09 32.2 °F 23.5 °F 29.87 in South 1.0 mph 9.0 mph 70% 0.00 in
03:14 32.2 °F 23.5 °F 29.86 in SSW 3.0 mph 8.0 mph 70% 0.00 in
03:19 32.3 °F 23.6 °F 29.85 in South 4.0 mph 10.0 mph 70% 0.00 in
03:24 32.4 °F 23.7 °F 29.85 in South 3.0 mph 10.0 mph 70% 0.00 in
03:30 32.4 °F 23.7 °F 29.86 in South 6.0 mph 11.0 mph 70% 0.00 in
03:34 32.4 °F 23.7 °F 29.86 in South 6.0 mph 11.0 mph 70% 0.00 in
03:39 32.3 °F 23.6 °F 29.86 in South 6.0 mph 11.0 mph 70% 0.00 in
03:44 32.1 °F 23.4 °F 29.85 in SSW 5.0 mph 11.0 mph 70% 0.00 in
03:49 32.0 °F 23.7 °F 29.85 in South 4.0 mph 10.0 mph 71% 0.00 in
03:54 32.1 °F 23.8 °F 29.86 in SSW 5.0 mph 11.0 mph 71% 0.00 in
03:59 32.1 °F 23.8 °F 29.85 in SSW 3.0 mph 11.0 mph 71% 0.00 in
04:04 32.2 °F 23.9 °F 29.85 in SSW 5.0 mph 13.0 mph 71% 0.00 in
04:09 32.2 °F 23.9 °F 29.85 in SSW 3.0 mph 13.0 mph 71% 0.00 in
04:14 32.1 °F 23.8 °F 29.85 in SSW 5.0 mph 13.0 mph 71% 0.00 in
04:19 32.0 °F 25.3 °F 29.86 in SSW 6.0 mph 13.0 mph 76% 0.00 in
04:24 31.8 °F 23.8 °F 29.85 in South 6.0 mph 13.0 mph 72% 0.00 in
04:29 31.6 °F 23.9 °F 29.85 in South 6.0 mph 13.0 mph 73% 0.00 in
04:34 31.4 °F 24.1 °F 29.85 in South 6.0 mph 13.0 mph 74% 0.00 in
04:39 31.4 °F 24.1 °F 29.84 in South 9.0 mph 15.0 mph 74% 0.00 in
04:44 31.4 °F 24.1 °F 29.84 in SSE 4.0 mph 15.0 mph 74% 0.00 in
04:49 31.4 °F 24.1 °F 29.84 in South 7.0 mph 16.0 mph 74% 0.00 in
04:54 31.4 °F 24.1 °F 29.84 in SSW 6.0 mph 16.0 mph 74% 0.00 in
04:59 31.2 °F 23.9 °F 29.84 in South 8.0 mph 15.0 mph 74% 0.00 in
05:04 31.0 °F 24.3 °F 29.84 in South 5.0 mph 14.0 mph 76% 0.00 in
05:09 30.7 °F 24.3 °F 29.83 in South 7.0 mph 13.0 mph 77% 0.00 in
05:14 30.7 °F 24.0 °F 29.83 in South 8.0 mph 13.0 mph 76% 0.00 in
05:19 30.8 °F 24.1 °F 29.83 in South 8.0 mph 16.0 mph 76% 0.00 in
05:24 30.8 °F 24.4 °F 29.83 in South 7.0 mph 16.0 mph 77% 0.00 in
05:29 30.9 °F 24.9 °F 29.83 in South 4.0 mph 18.0 mph 78% 0.00 in
05:34 30.8 °F 25.1 °F 29.83 in South 8.0 mph 18.0 mph 79% 0.00 in
05:39 30.7 °F 25.3 °F 29.82 in South 10.0 mph 18.0 mph 80% 0.00 in
05:44 30.5 °F 25.4 °F 29.82 in South 9.0 mph 19.0 mph 81% 0.00 in
05:49 30.4 °F 25.3 °F 29.82 in South 10.0 mph 19.0 mph 81% 0.00 in
05:54 30.3 °F 25.5 °F 29.82 in South 7.0 mph 16.0 mph 82% 0.00 in
06:04 29.9 °F 25.1 °F 29.82 in South 9.0 mph 22.0 mph 82% 0.00 in
06:09 29.8 °F 25.3 °F 29.81 in South 9.0 mph 17.0 mph 83% 0.00 in
06:14 29.8 °F 25.0 °F 29.81 in South 10.0 mph 18.0 mph 82% 0.00 in
06:19 29.9 °F 25.1 °F 29.80 in South 6.0 mph 18.0 mph 82% 0.00 in
06:24 29.9 °F 25.1 °F 29.79 in South 8.0 mph 15.0 mph 82% 0.00 in
06:29 30.1 °F 25.3 °F 29.79 in South 9.0 mph 20.0 mph 82% 0.00 in
06:34 30.1 °F 25.0 °F 29.78 in South 8.0 mph 20.0 mph 81% 0.00 in
06:39 30.1 °F 25.0 °F 29.77 in South 8.0 mph 15.0 mph 81% 0.00 in
06:44 30.1 °F 25.3 °F 29.77 in South 6.0 mph 16.0 mph 82% 0.00 in
06:49 30.1 °F 25.6 °F 29.77 in South 6.0 mph 16.0 mph 83% 0.00 in
06:54 30.2 °F 25.7 °F 29.77 in South 6.0 mph 14.0 mph 83% 0.00 in
06:59 30.4 °F 26.1 °F 29.76 in SSW 8.0 mph 15.0 mph 84% 0.00 in
07:04 30.5 °F 26.2 °F 29.76 in South 7.0 mph 16.0 mph 84% 0.00 in
07:09 30.7 °F 26.4 °F 29.75 in South 5.0 mph 16.0 mph 84% 0.00 in
07:14 30.7 °F 26.4 °F 29.75 in South 7.0 mph 14.0 mph 84% 0.00 in
07:19 30.7 °F 26.4 °F 29.75 in South 7.0 mph 14.0 mph 84% 0.00 in
07:24 30.7 °F 26.2 °F 29.74 in South 7.0 mph 14.0 mph 83% 0.00 in
07:29 30.7 °F 26.2 °F 29.74 in SSW 6.0 mph 17.0 mph 83% 0.00 in
07:34 30.9 °F 26.3 °F 29.74 in South 4.0 mph 17.0 mph 83% 0.00 in
07:39 30.9 °F 26.3 °F 29.73 in South 7.0 mph 13.0 mph 83% 0.00 in
07:44 31.0 °F 26.4 °F 29.73 in South 6.0 mph 12.0 mph 83% 0.00 in
07:49 31.1 °F 26.5 °F 29.72 in South 5.0 mph 12.0 mph 83% 0.00 in
07:54 31.0 °F 26.4 °F 29.71 in South 5.0 mph 15.0 mph 83% 0.00 in
07:59 31.1 °F 26.5 °F 29.71 in South 6.0 mph 15.0 mph 83% 0.00 in
08:04 31.2 °F 26.9 °F 29.71 in SSE 5.0 mph 12.0 mph 84% 0.00 in
08:09 31.2 °F 26.6 °F 29.70 in South 3.0 mph 11.0 mph 83% 0.00 in
08:14 31.1 °F 26.5 °F 29.70 in South 5.0 mph 13.0 mph 83% 0.00 in
08:19 31.0 °F 26.4 °F 29.69 in South 7.0 mph 13.0 mph 83% 0.00 in
08:24 30.9 °F 26.3 °F 29.69 in South 6.0 mph 13.0 mph 83% 0.00 in
08:29 30.8 °F 26.5 °F 29.68 in South 8.0 mph 15.0 mph 84% 0.00 in
08:34 30.8 °F 26.5 °F 29.68 in South 7.0 mph 15.0 mph 84% 0.00 in
08:39 30.9 °F 26.9 °F 29.67 in South 3.0 mph 13.0 mph 85% 0.00 in
08:44 30.9 °F 26.6 °F 29.67 in South 3.0 mph 10.0 mph 84% 0.00 in
08:49 30.9 °F 26.9 °F 29.67 in South 3.0 mph 10.0 mph 85% 0.00 in
08:54 30.9 °F 26.6 °F 29.65 in South 6.0 mph 12.0 mph 84% 0.00 in
08:59 30.9 °F 26.6 °F 29.65 in South 5.0 mph 12.0 mph 84% 0.00 in
09:04 30.8 °F 26.5 °F 29.64 in South 5.0 mph 9.0 mph 84% 0.00 in
09:09 30.8 °F 26.5 °F 29.63 in South 5.0 mph 12.0 mph 84% 0.00 in
09:14 30.8 °F 26.5 °F 29.62 in SSW 3.0 mph 12.0 mph 84% 0.00 in
09:19 30.9 °F 26.6 °F 29.61 in South 5.0 mph 9.0 mph 84% 0.00 in
09:24 30.9 °F 26.6 °F 29.61 in South 5.0 mph 12.0 mph 84% 0.00 in
09:29 31.0 °F 26.7 °F 29.61 in South 5.0 mph 12.0 mph 84% 0.00 in
09:34 31.0 °F 26.7 °F 29.60 in SSW 6.0 mph 13.0 mph 84% 0.00 in
09:39 31.0 °F 26.7 °F 29.60 in South 6.0 mph 13.0 mph 84% 0.00 in
09:44 30.9 °F 26.6 °F 29.59 in South 3.0 mph 14.0 mph 84% 0.00 in
09:49 30.9 °F 26.6 °F 29.59 in SSW 5.0 mph 14.0 mph 84% 0.00 in
09:54 30.9 °F 26.6 °F 29.57 in South 6.0 mph 11.0 mph 84% 0.00 in
09:59 30.9 °F 26.6 °F 29.57 in SSW 3.0 mph 10.0 mph 84% 0.00 in
10:04 31.0 °F 26.7 °F 29.56 in South 3.0 mph 9.0 mph 84% 0.00 in
10:09 31.0 °F 26.4 °F 29.55 in South 3.0 mph 10.0 mph 83% 0.00 in
10:14 31.2 °F 26.6 °F 29.54 in South 4.0 mph 10.0 mph 83% 0.00 in
10:19 31.3 °F 26.7 °F 29.53 in South 5.0 mph 10.0 mph 83% 0.00 in
10:24 31.3 °F 26.7 °F 29.53 in South 5.0 mph 10.0 mph 83% 0.00 in
10:29 31.4 °F 26.8 °F 29.53 in South 5.0 mph 11.0 mph 83% 0.00 in
10:34 31.4 °F 26.8 °F 29.53 in SSW 4.0 mph 11.0 mph 83% 0.00 in
10:39 31.5 °F 26.9 °F 29.52 in South 6.0 mph 9.0 mph 83% 0.00 in
10:44 31.5 °F 26.9 °F 29.52 in South 2.0 mph 9.0 mph 83% 0.00 in
10:49 31.6 °F 27.3 °F 29.52 in SSW 3.0 mph 9.0 mph 84% 0.00 in
10:54 31.7 °F 27.4 °F 29.52 in South 4.0 mph 9.0 mph 84% 0.00 in
10:59 31.8 °F 27.5 °F 29.52 in South 2.0 mph 9.0 mph 84% 0.00 in
11:04 31.9 °F 27.6 °F 29.52 in Calm   7.0 mph 84% 0.00 in
11:09 32.0 °F 27.7 °F 29.52 in Calm     84% 0.00 in
11:14 32.0 °F 27.7 °F 29.51 in Calm     84% 0.00 in
11:19 32.0 °F 27.7 °F 29.51 in Calm     84% 0.00 in
11:24 31.9 °F 27.6 °F 29.50 in Calm     84% 0.00 in
11:29 31.8 °F 27.5 °F 29.50 in Calm     84% 0.00 in
11:34 32.0 °F 27.7 °F 29.49 in Calm     84% 0.00 in
11:39 32.2 °F 27.9 °F 29.48 in Calm     84% 0.00 in
11:44 32.3 °F 28.0 °F 29.48 in Calm     84% 0.00 in
11:49 32.3 °F 28.0 °F 29.47 in Calm     84% 0.00 in
11:54 32.3 °F 28.0 °F 29.46 in Calm     84% 0.00 in
11:59 32.3 °F 28.0 °F 29.45 in Calm     84% 0.00 in
12:04 32.3 °F 28.0 °F 29.45 in Calm     84% 0.00 in
12:09 32.3 °F 28.0 °F 29.45 in Calm     84% 0.00 in
12:14 32.4 °F 28.1 °F 29.44 in Calm     84% 0.00 in
12:19 32.5 °F 28.2 °F 29.44 in Calm     84% 0.00 in
12:24 32.6 °F 28.3 °F 29.43 in Calm     84% 0.00 in
12:29 32.6 °F 28.6 °F 29.43 in Calm     85% 0.00 in
12:34 32.6 °F 28.6 °F 29.42 in Calm     85% 0.00 in
12:39 32.6 °F 28.6 °F 29.42 in Calm     85% 0.00 in
12:44 32.6 °F 28.6 °F 29.41 in Calm     85% 0.00 in
12:49 32.5 °F 28.5 °F 29.40 in Calm     85% 0.00 in
12:54 32.5 °F 28.5 °F 29.40 in Calm     85% 0.00 in
12:59 32.5 °F 28.8 °F 29.41 in Calm     86% 0.00 in
13:04 32.5 °F 28.8 °F 29.40 in Calm     86% 0.00 in
13:09 32.5 °F 28.8 °F 29.39 in Calm     86% 0.00 in
13:14 32.6 °F 29.2 °F 29.39 in Calm     87% 0.00 in
13:19 32.6 °F 29.2 °F 29.40 in Calm     87% 0.00 in
13:24 32.6 °F 29.2 °F 29.41 in Calm     87% 0.00 in
13:29 32.5 °F 29.3 °F 29.40 in Calm     88% 0.00 in
13:34 32.6 °F 29.4 °F 29.40 in Calm     88% 0.00 in
13:44 32.7 °F 29.5 °F 29.39 in Calm     88% 0.00 in
13:49 32.7 °F 29.5 °F 29.40 in Calm     88% 0.00 in
13:54 32.6 °F 29.4 °F 29.40 in Calm     88% 0.00 in
13:59 32.6 °F 29.7 °F 29.41 in Calm     89% 0.00 in
14:04 32.6 °F 29.7 °F 29.42 in Calm     89% 0.00 in
14:09 32.7 °F 29.8 °F 29.42 in Calm     89% 0.00 in
14:14 32.7 °F 29.8 °F 29.42 in Calm     89% 0.00 in
14:19 32.7 °F 29.8 °F 29.42 in Calm     89% 0.00 in
14:24 32.7 °F 29.8 °F 29.43 in Calm     89% 0.00 in
14:29 32.6 °F 29.7 °F 29.44 in Calm     89% 0.00 in
14:35 32.6 °F 30.0 °F 29.45 in Calm     90% 0.00 in
14:39 32.6 °F 30.0 °F 29.45 in Calm     90% 0.00 in
14:44 32.8 °F 30.2 °F 29.45 in Calm     90% 0.00 in
14:49 33.0 °F 30.4 °F 29.44 in Calm     90% 0.00 in
14:54 33.2 °F 30.9 °F 29.44 in Calm     91% 0.00 in
14:59 33.3 °F 31.0 °F 29.44 in Calm     91% 0.00 in
15:04 33.3 °F 31.0 °F 29.44 in Calm     91% 0.00 in
15:09 33.3 °F 31.0 °F 29.44 in Calm     91% 0.00 in
15:14 33.3 °F 31.0 °F 29.44 in Calm     91% 0.00 in
15:19 33.3 °F 31.0 °F 29.43 in Calm     91% 0.00 in
15:24 33.3 °F 31.0 °F 29.43 in Calm     91% 0.00 in
15:29 33.3 °F 31.0 °F 29.44 in Calm     91% 0.00 in
15:34 33.3 °F 31.0 °F 29.45 in Calm     91% 0.00 in
15:39 33.2 °F 30.9 °F 29.46 in Calm     91% 0.00 in
15:44 33.2 °F 30.9 °F 29.46 in Calm     91% 0.00 in
15:49 33.3 °F 31.2 °F 29.46 in Calm     92% 0.00 in
15:54 33.4 °F 31.3 °F 29.46 in Calm     92% 0.00 in
15:59 33.5 °F 31.4 °F 29.46 in Calm     92% 0.00 in
16:04 33.4 °F 31.3 °F 29.47 in Calm     92% 0.00 in
16:09 33.5 °F 31.4 °F 29.48 in Calm     92% 0.00 in
16:14 33.5 °F 31.4 °F 29.48 in Calm     92% 0.00 in
16:19 33.5 °F 31.4 °F 29.48 in Calm     92% 0.00 in
16:24 33.6 °F 31.5 °F 29.47 in Calm     92% 0.00 in
16:29 33.6 °F 31.5 °F 29.47 in Calm     92% 0.00 in
16:34 33.5 °F 31.4 °F 29.48 in Calm     92% 0.00 in
16:39 33.5 °F 31.4 °F 29.49 in Calm     92% 0.00 in
16:44 33.5 °F 31.4 °F 29.50 in WSW 1.0 mph 6.0 mph 92% 0.00 in
16:49 33.5 °F 31.4 °F 29.51 in WSW 3.0 mph 6.0 mph 92% 0.00 in
16:55 33.6 °F 31.5 °F 29.52 in WSW 2.0 mph 6.0 mph 92% 0.00 in
16:59 33.6 °F 31.8 °F 29.52 in WSW 2.0 mph 5.0 mph 93% 0.00 in
17:04 33.8 °F 32.0 °F 29.53 in WSW 3.0 mph 6.0 mph 93% 0.00 in
17:09 34.0 °F 32.2 °F 29.54 in WSW 4.0 mph 6.0 mph 93% 0.00 in
17:14 34.0 °F 32.2 °F 29.55 in West 3.0 mph 7.0 mph 93% 0.00 in
17:19 34.1 °F 32.3 °F 29.56 in West 4.0 mph 8.0 mph 93% 0.00 in
17:24 34.1 °F 32.3 °F 29.57 in WNW 3.0 mph 8.0 mph 93% 0.00 in
17:29 34.0 °F 32.2 °F 29.58 in NW 7.0 mph 12.0 mph 93% 0.00 in
17:34 34.0 °F 32.2 °F 29.58 in NW 3.0 mph 12.0 mph 93% 0.00 in
17:39 33.8 °F 32.0 °F 29.59 in NW 7.0 mph 13.0 mph 93% 0.00 in
17:44 33.6 °F 31.8 °F 29.59 in NW 6.0 mph 13.0 mph 93% 0.00 in
17:49 33.5 °F 31.4 °F 29.60 in WNW 4.0 mph 9.0 mph 92% 0.00 in
17:54 33.4 °F 31.3 °F 29.60 in NW 3.0 mph 8.0 mph 92% 0.00 in
17:59 33.2 °F 31.1 °F 29.61 in NW 6.0 mph 11.0 mph 92% 0.00 in
18:04 33.0 °F 30.9 °F 29.62 in NW 6.0 mph 14.0 mph 92% 0.00 in
18:09 32.8 °F 30.5 °F 29.63 in NW 10.0 mph 21.0 mph 91% 0.00 in
18:14 32.5 °F 29.9 °F 29.63 in WNW 12.0 mph 21.0 mph 90% 0.00 in
18:19 32.3 °F 29.4 °F 29.64 in WNW 14.0 mph 23.0 mph 89% 0.00 in
18:24 32.0 °F 29.1 °F 29.64 in NW 12.0 mph 23.0 mph 89% 0.00 in
18:29 31.8 °F 28.7 °F 29.65 in WNW 11.0 mph 22.0 mph 88% 0.00 in
18:39 31.6 °F 28.5 °F 29.66 in WNW 11.0 mph 17.0 mph 88% 0.00 in
18:44 31.4 °F 28.3 °F 29.67 in NW 10.0 mph 24.0 mph 88% 0.00 in
18:49 31.3 °F 27.9 °F 29.67 in NNW 9.0 mph 24.0 mph 87% 0.00 in
18:54 31.2 °F 27.8 °F 29.67 in NW 5.0 mph 17.0 mph 87% 0.00 in
18:59 31.2 °F 27.5 °F 29.68 in WNW 8.0 mph 17.0 mph 86% 0.00 in
19:04 31.2 °F 27.2 °F 29.68 in NW 6.0 mph 17.0 mph 85% 0.00 in
19:09 31.2 °F 27.2 °F 29.68 in NW 6.0 mph 16.0 mph 85% 0.00 in
19:14 31.2 °F 27.2 °F 29.69 in NW 5.0 mph 15.0 mph 85% 0.00 in
19:19 31.2 °F 27.2 °F 29.70 in WNW 4.0 mph 15.0 mph 85% 0.00 in
19:24 31.2 °F 27.2 °F 29.70 in NW 7.0 mph 15.0 mph 85% 0.00 in
19:29 31.2 °F 27.2 °F 29.71 in NW 5.0 mph 15.0 mph 85% 0.00 in
19:34 31.1 °F 26.8 °F 29.71 in NW 8.0 mph 13.0 mph 84% 0.00 in
19:39 31.1 °F 26.8 °F 29.72 in WNW 6.0 mph 21.0 mph 84% 0.00 in
19:44 31.1 °F 26.8 °F 29.73 in NW 7.0 mph 21.0 mph 84% 0.00 in
19:49 31.0 °F 26.7 °F 29.73 in NW 9.0 mph 19.0 mph 84% 0.00 in
19:54 30.9 °F 26.3 °F 29.74 in NW 5.0 mph 19.0 mph 83% 0.00 in
19:59 30.9 °F 26.3 °F 29.74 in NW 5.0 mph 15.0 mph 83% 0.00 in
20:04 30.8 °F 26.3 °F 29.74 in NW 6.0 mph 15.0 mph 83% 0.00 in
20:09 30.8 °F 26.3 °F 29.75 in NW 4.0 mph 14.0 mph 83% 0.00 in
20:14 30.8 °F 26.0 °F 29.76 in NW 8.0 mph 17.0 mph 82% 0.00 in
20:19 30.7 °F 25.6 °F 29.75 in NW 8.0 mph 21.0 mph 81% 0.00 in
20:24 30.7 °F 25.6 °F 29.75 in NW 4.0 mph 21.0 mph 81% 0.00 in
20:29 30.6 °F 25.5 °F 29.75 in NW 4.0 mph 19.0 mph 81% 0.00 in
20:34 30.5 °F 25.4 °F 29.76 in NW 4.0 mph 11.0 mph 81% 0.00 in
20:39 30.4 °F 25.3 °F 29.76 in NW 4.0 mph 12.0 mph 81% 0.00 in
20:44 30.3 °F 25.2 °F 29.76 in NW 4.0 mph 12.0 mph 81% 0.00 in
20:49 30.2 °F 25.1 °F 29.77 in NNW 12.0 mph 26.0 mph 81% 0.00 in
20:54 30.1 °F 25.3 °F 29.78 in NW 5.0 mph 26.0 mph 82% 0.00 in
20:59 29.7 °F 23.7 °F 29.78 in NW 8.0 mph 25.0 mph 78% 0.00 in
21:04 29.6 °F 23.3 °F 29.78 in NW 7.0 mph 25.0 mph 77% 0.00 in
21:09 29.4 °F 22.5 °F 29.79 in NW 9.0 mph 21.0 mph 75% 0.00 in
21:14 29.2 °F 21.6 °F 29.79 in NW 9.0 mph 21.0 mph 73% 0.00 in
21:19 28.9 °F 21.0 °F 29.79 in NW 9.0 mph 17.0 mph 72% 0.00 in
21:24 28.6 °F 20.4 °F 29.80 in NW 9.0 mph 16.0 mph 71% 0.00 in
21:29 28.4 °F 19.9 °F 29.80 in NW 9.0 mph 18.0 mph 70% 0.00 in
21:34 28.1 °F 19.6 °F 29.80 in NW 9.0 mph 18.0 mph 70% 0.00 in
21:39 27.9 °F 19.4 °F 29.80 in NW 7.0 mph 17.0 mph 70% 0.00 in
21:44 27.8 °F 19.6 °F 29.80 in NW 8.0 mph 17.0 mph 71% 0.00 in
21:49 27.6 °F 19.8 °F 29.81 in NW 4.0 mph 17.0 mph 72% 0.00 in
21:54 27.5 °F 19.7 °F 29.81 in NW 8.0 mph 17.0 mph 72% 0.00 in
21:59 27.6 °F 19.8 °F 29.81 in NW 7.0 mph 18.0 mph 72% 0.00 in
22:04 27.5 °F 19.7 °F 29.81 in NW 6.0 mph 18.0 mph 72% 0.00 in
22:09 27.4 °F 19.6 °F 29.82 in NW 6.0 mph 18.0 mph 72% 0.00 in
22:14 27.4 °F 19.6 °F 29.82 in NW 10.0 mph 18.0 mph 72% 0.00 in
22:19 27.4 °F 19.9 °F 29.82 in NNW 9.0 mph 18.0 mph 73% 0.00 in
22:24 27.4 °F 19.9 °F 29.82 in WNW 10.0 mph 20.0 mph 73% 0.00 in
22:29 27.3 °F 20.1 °F 29.83 in NNW 5.0 mph 20.0 mph 74% 0.00 in
22:34 27.2 °F 20.0 °F 29.83 in NW 10.0 mph 17.0 mph 74% 0.00 in
22:39 27.1 °F 20.2 °F 29.83 in NW 6.0 mph 17.0 mph 75% 0.00 in
22:44 27.1 °F 20.2 °F 29.84 in WNW 6.0 mph 14.0 mph 75% 0.00 in
22:49 27.2 °F 20.3 °F 29.84 in NNW 5.0 mph 18.0 mph 75% 0.00 in
22:54 27.1 °F 20.2 °F 29.84 in NW 5.0 mph 18.0 mph 75% 0.00 in
23:04 26.8 °F 19.9 °F 29.85 in NNW 6.0 mph 16.0 mph 75% 0.00 in
23:09 26.7 °F 20.2 °F 29.85 in NW 6.0 mph 16.0 mph 76% 0.00 in
23:14 26.8 °F 20.3 °F 29.85 in NW 7.0 mph 15.0 mph 76% 0.00 in
23:19 26.8 °F 20.3 °F 29.86 in NW 6.0 mph 15.0 mph 76% 0.00 in
23:24 26.7 °F 20.2 °F 29.86 in NW 9.0 mph 16.0 mph 76% 0.00 in
23:29 26.7 °F 20.2 °F 29.86 in NW 8.0 mph 19.0 mph 76% 0.00 in
23:34 26.6 °F 19.7 °F 29.86 in NW 10.0 mph 25.0 mph 75% 0.00 in
23:39 26.5 °F 20.0 °F 29.86 in NW 6.0 mph 25.0 mph 76% 0.00 in
23:44 26.3 °F 19.8 °F 29.87 in NNW 9.0 mph 23.0 mph 76% 0.00 in
23:49 26.2 °F 19.7 °F 29.86 in NW 7.0 mph 23.0 mph 76% 0.00 in
23:54 26.1 °F 19.0 °F 29.86 in NW 13.0 mph 26.0 mph 74% 0.00 in
23:59 26.0 °F 19.2 °F 29.87 in NNW 8.0 mph 26.0 mph 75% 0.00 in
Westford Weather
Compliments of Weather Underground

 
 
Current Radar Loop:

Copyright © WestfordWeather.net 2007-2014. All rights reserved.